Terminal Aerodrome Forecast
Issued by NWS Cleveland, OH

Home | Current Version | Previous Version | Text Only | Print | Product List | Glossary On
Versions: 1 2 3 4 5 6 7 8 9 10 11 12 13 14 15 16 17 18 19 20 21 22 23 24 25 26 27 28 29
000
FTUS41 KCLE 230900 AAA
TAFCLE
TAF AMD
KCLE 230910Z 2309/2412 19012KT P6SM OVC045
     FM230930 19012KT 6SM -SHRA SCT025 OVC035
     FM231600 16012G20KT P6SM OVC035
     FM240000 13020G30KT 5SM -SHRA SCT008 OVC018=

USA.gov is the U.S. government's official web portal to all federal, state and local government web resources and services.